createdAt,value
2019-04-20T00:00:55.063Z,53.70
2019-04-20T00:03:30.984Z,53.90
2019-04-20T00:05:55.208Z,54.60
2019-04-20T00:08:27.393Z,55.70
2019-04-20T00:11:02.599Z,54.10
2019-04-20T00:13:34.603Z,53.70
2019-04-20T00:15:54.075Z,54.00
2019-04-20T00:18:28.056Z,55.00
2019-04-20T00:21:04.805Z,55.10
2019-04-20T00:23:45.043Z,54.40
2019-04-20T00:26:56.195Z,55.30
2019-04-20T00:29:10.331Z,54.40
2019-04-20T00:31:42.086Z,53.80
2019-04-20T00:34:07.986Z,55.00
2019-04-20T00:36:27.341Z,54.70
2019-04-20T00:39:01.301Z,54.80
2019-04-20T00:41:27.679Z,54.30
2019-04-20T00:43:57.839Z,54.70
2019-04-20T00:46:32.941Z,55.10
2019-04-20T00:49:06.903Z,54.60
2019-04-20T00:52:00.488Z,54.80
2019-04-20T00:54:00.893Z,53.90
2019-04-20T00:56:30.947Z,54.90
2019-04-20T00:59:13.026Z,54.30
2019-04-20T01:01:52.296Z,55.30
2019-04-20T01:04:19.827Z,55.30
2019-04-20T01:07:07.287Z,55.80
2019-04-20T01:09:41.341Z,55.70
2019-04-20T01:12:16.405Z,55.10
2019-04-20T01:14:48.688Z,55.80
2019-04-20T01:17:11.921Z,55.20
2019-04-20T01:19:40.693Z,55.20
2019-04-20T01:22:13.597Z,55.30
2019-04-20T01:24:41.973Z,55.20
2019-04-20T01:27:23.749Z,54.60
2019-04-20T01:29:48.815Z,53.40
2019-04-20T01:32:22.361Z,54.00
2019-04-20T01:34:52.361Z,53.90
2019-04-20T01:37:26.129Z,54.30
2019-04-20T01:39:46.672Z,54.90
2019-04-20T01:42:13.044Z,54.60
2019-04-20T01:44:45.308Z,53.50
2019-04-20T01:47:13.371Z,55.00
2019-04-20T01:49:42.272Z,54.70
2019-04-20T01:52:20.306Z,53.60
2019-04-20T01:55:04.798Z,53.40
2019-04-20T01:57:26.245Z,54.40
2019-04-20T02:00:14.487Z,54.00
2019-04-20T02:02:50.139Z,52.30
2019-04-20T02:05:23.037Z,54.40
2019-04-20T02:07:51.972Z,54.00
2019-04-20T02:10:20.073Z,53.20
2019-04-20T02:12:53.093Z,54.10
2019-04-20T02:15:29.383Z,54.20
2019-04-20T02:18:03.162Z,53.90
2019-04-20T02:20:37.873Z,54.50
2019-04-20T02:23:06.788Z,54.80
2019-04-20T02:25:22.709Z,53.90
2019-04-20T02:27:55.370Z,53.50
2019-04-20T02:30:59.869Z,54.70
2019-04-20T02:33:34.780Z,54.50
2019-04-20T02:36:11.121Z,54.10
2019-04-20T02:38:55.049Z,54.60
2019-04-20T02:41:09.834Z,54.50
2019-04-20T02:43:46.785Z,54.90
2019-04-20T02:46:12.817Z,54.10
2019-04-20T02:48:48.185Z,54.30
2019-04-20T02:51:10.528Z,51.80
2019-04-20T02:53:50.824Z,53.40
2019-04-20T02:56:12.969Z,52.40
2019-04-20T02:58:43.694Z,53.10
2019-04-20T03:01:20.158Z,54.60
2019-04-20T03:03:41.442Z,54.00
2019-04-20T03:06:17.291Z,54.80
2019-04-20T03:08:57.158Z,54.80
2019-04-20T03:11:33.311Z,55.00
2019-04-20T03:13:56.731Z,53.90
2019-04-20T03:16:25.607Z,54.20
2019-04-20T03:18:50.550Z,53.60
2019-04-20T03:21:32.787Z,53.70
2019-04-20T03:24:09.536Z,54.30
2019-04-20T03:26:27.731Z,54.50
2019-04-20T03:29:13.955Z,54.40
2019-04-20T03:37:15.651Z,54.30
2019-04-20T03:39:37.618Z,52.40
2019-04-20T03:41:52.435Z,54.20
2019-04-20T03:44:23.745Z,53.60
2019-04-20T03:46:57.187Z,55.30
2019-04-20T03:49:52.841Z,54.80
2019-04-20T03:52:26.201Z,54.40
2019-04-20T03:55:12.879Z,52.70
2019-04-20T03:57:51.299Z,52.60
2019-04-20T04:00:21.895Z,53.90
2019-04-20T04:03:12.529Z,54.00
2019-04-20T04:05:34.078Z,55.10
2019-04-20T04:07:56.226Z,55.00
2019-04-20T04:10:28.058Z,55.10
2019-04-20T04:13:09.577Z,54.80
2019-04-20T04:15:45.339Z,55.80
2019-04-20T04:18:17.236Z,55.80
2019-04-20T04:20:46.719Z,55.20
2019-04-20T04:23:32.658Z,54.10
2019-04-20T04:25:59.385Z,55.00
2019-04-20T04:28:28.636Z,55.30
2019-04-20T04:31:03.600Z,55.20
2019-04-20T04:35:56.857Z,55.70
2019-04-20T04:38:37.689Z,56.80
2019-04-20T04:41:09.663Z,56.10
2019-04-20T04:43:35.891Z,57.30
2019-04-20T04:45:44.705Z,57.10
2019-04-20T04:48:18.905Z,56.90
2019-04-20T04:50:50.914Z,57.80
2019-04-20T04:53:28.589Z,57.00
2019-04-20T04:55:52.853Z,57.50
2019-04-20T04:58:14.908Z,57.30
2019-04-20T05:00:46.638Z,57.90
2019-04-20T05:03:35.793Z,57.70
2019-04-20T05:06:06.561Z,57.40
2019-04-20T05:08:30.716Z,56.50
2019-04-20T05:10:52.557Z,57.00
2019-04-20T05:13:21.912Z,58.00
2019-04-20T05:16:05.273Z,57.60
2019-04-20T05:18:45.031Z,57.50
2019-04-20T05:21:15.329Z,57.80
2019-04-20T05:23:56.517Z,57.50
2019-04-20T05:26:36.136Z,57.30
2019-04-20T05:29:01.140Z,57.60
2019-04-20T05:31:30.991Z,57.90
2019-04-20T05:34:14.437Z,57.10
2019-04-20T05:36:41.269Z,58.10
2019-04-20T05:39:23.760Z,57.40
2019-04-20T05:41:41.758Z,57.00
2019-04-20T05:44:12.576Z,56.40
2019-04-20T05:46:45.898Z,56.80
2019-04-20T05:49:22.695Z,56.70
2019-04-20T05:51:43.364Z,56.90
2019-04-20T05:54:19.032Z,56.20
2019-04-20T05:56:47.858Z,56.00
2019-04-20T05:59:17.643Z,55.90
2019-04-20T06:01:53.115Z,56.40
2019-04-20T06:04:28.690Z,54.40
2019-04-20T06:06:55.026Z,54.60
2019-04-20T06:09:27.815Z,54.80
2019-04-20T06:12:08.964Z,54.50
2019-04-20T06:14:43.176Z,54.60
2019-04-20T06:17:21.222Z,54.50
2019-04-20T06:19:58.601Z,53.50
2019-04-20T06:22:33.133Z,53.50
2019-04-20T06:25:19.586Z,53.50
2019-04-20T06:27:36.795Z,51.50
2019-04-20T06:30:00.889Z,53.10
2019-04-20T06:33:19.026Z,50.00
2019-04-20T06:36:06.035Z,49.30
2019-04-20T06:38:26.667Z,48.80
2019-04-20T06:41:00.907Z,50.90
2019-04-20T06:43:25.405Z,50.40
2019-04-20T06:46:01.973Z,49.10
2019-04-20T06:48:31.622Z,48.00
2019-04-20T06:50:48.354Z,46.90
2019-04-20T06:53:45.276Z,48.90
2019-04-20T06:56:15.589Z,48.80
2019-04-20T06:58:46.062Z,48.60
2019-04-20T07:01:15.282Z,46.20
2019-04-20T07:03:51.708Z,45.10
2019-04-20T07:06:31.161Z,44.40
2019-04-20T07:09:00.844Z,42.30
2019-04-20T07:11:11.102Z,43.60
2019-04-20T07:13:32.405Z,41.00
2019-04-20T07:16:28.262Z,42.50
2019-04-20T07:19:04.824Z,41.20
2019-04-20T07:21:47.464Z,40.40
2019-04-20T07:24:14.138Z,37.90
2019-04-20T07:26:41.725Z,38.20
2019-04-20T07:29:07.143Z,38.10
2019-04-20T07:31:30.828Z,37.50
2019-04-20T07:34:04.771Z,37.20
2019-04-20T07:36:37.831Z,34.30
2019-04-20T07:39:08.492Z,35.60
2019-04-20T07:41:43.325Z,35.20
2019-04-20T07:44:16.664Z,34.10
2019-04-20T07:46:49.930Z,33.60
2019-04-20T07:49:07.681Z,32.00
2019-04-20T07:51:24.830Z,32.50
2019-04-20T07:54:21.916Z,30.00
2019-04-20T07:56:43.448Z,29.70
2019-04-20T07:58:55.225Z,28.60
2019-04-20T08:01:56.135Z,29.10
2019-04-20T08:04:32.446Z,29.30
2019-04-20T08:06:53.413Z,28.10
2019-04-20T08:09:26.169Z,26.60
2019-04-20T08:12:22.497Z,26.70
2019-04-20T08:14:55.706Z,25.00
2019-04-20T08:17:37.392Z,24.80
2019-04-20T08:19:48.448Z,24.60
2019-04-20T08:22:19.856Z,23.20
2019-04-20T08:24:42.875Z,23.00
2019-04-20T08:27:06.499Z,22.40
2019-04-20T08:29:50.150Z,21.70
2019-04-20T08:32:32.513Z,21.60
2019-04-20T08:35:14.319Z,21.30
2019-04-20T08:37:45.959Z,21.90
2019-04-20T08:40:14.768Z,20.40
2019-04-20T08:42:49.615Z,21.40
2019-04-20T08:45:18.835Z,20.20
2019-04-20T08:47:44.828Z,19.90
2019-04-20T08:50:15.874Z,20.80
2019-04-20T08:55:09.246Z,19.70
2019-04-20T08:57:22.520Z,19.80
2019-04-20T08:59:51.466Z,19.70
2019-04-20T09:02:22.080Z,20.10
2019-04-20T09:04:59.126Z,19.20
2019-04-20T09:07:26.305Z,18.40
2019-04-20T09:10:20.128Z,19.20
2019-04-20T09:12:40.894Z,19.00
2019-04-20T09:14:55.163Z,17.90
2019-04-20T09:17:34.838Z,18.40
2019-04-20T09:20:04.742Z,18.70
2019-04-20T09:22:40.273Z,19.20
2019-04-20T09:25:42.804Z,17.90
2019-04-20T09:27:40.783Z,17.50
2019-04-20T09:30:20.915Z,18.30
2019-04-20T09:33:09.272Z,18.30
2019-04-20T09:35:39.713Z,18.40
2019-04-20T09:38:06.081Z,17.60
2019-04-20T09:40:42.926Z,18.00
2019-04-20T09:42:53.643Z,18.40
2019-04-20T09:45:33.921Z,16.90
2019-04-20T09:47:58.151Z,18.30
2019-04-20T09:50:44.948Z,17.60
2019-04-20T09:53:14.280Z,17.80
2019-04-20T09:55:38.181Z,17.10
2019-04-20T09:58:09.735Z,16.80
2019-04-20T10:00:56.840Z,15.60
2019-04-20T10:03:10.740Z,15.80
2019-04-20T10:05:39.514Z,15.80
2019-04-20T10:08:09.894Z,15.80
2019-04-20T10:10:41.703Z,15.50
2019-04-20T10:13:11.249Z,14.90
2019-04-20T10:15:39.733Z,15.70
2019-04-20T10:18:08.079Z,15.40
2019-04-20T10:20:38.907Z,15.70
2019-04-20T10:23:08.704Z,14.80
2019-04-20T10:25:38.432Z,14.80
2019-04-20T10:28:07.656Z,14.80
2019-04-20T10:30:36.725Z,15.10
2019-04-20T10:33:05.794Z,14.40
2019-04-20T10:35:35.820Z,14.80
2019-04-20T10:38:07.456Z,15.00
2019-04-20T10:40:56.136Z,13.90
2019-04-20T10:43:16.487Z,13.50
2019-04-20T10:45:45.054Z,13.30
2019-04-20T10:48:13.362Z,13.60
2019-04-20T10:50:43.020Z,13.80
2019-04-20T10:53:12.464Z,13.50
2019-04-20T10:55:40.753Z,13.30
2019-04-20T10:58:09.378Z,14.60
2019-04-20T11:00:46.166Z,13.80
2019-04-20T11:03:15.721Z,14.00
2019-04-20T11:05:46.656Z,13.80
2019-04-20T11:08:16.745Z,13.50
2019-04-20T11:10:55.694Z,13.50
2019-04-20T11:13:17.197Z,13.70
2019-04-20T11:15:46.400Z,13.50
2019-04-20T11:18:15.497Z,13.10
2019-04-20T11:20:45.513Z,12.80
2019-04-20T11:23:16.120Z,12.90
2019-04-20T11:25:46.297Z,13.30
2019-04-20T11:28:16.470Z,13.00
2019-04-20T11:30:48.348Z,12.40
2019-04-20T11:33:18.130Z,12.10
2019-04-20T11:35:48.130Z,12.10
2019-04-20T11:38:17.456Z,12.70
2019-04-20T11:40:48.241Z,12.40
2019-04-20T11:43:17.837Z,12.80
2019-04-20T11:45:52.240Z,12.60
2019-04-20T11:48:21.563Z,11.90
2019-04-20T11:50:53.602Z,11.50
2019-04-20T11:53:26.558Z,12.20
2019-04-20T11:55:56.279Z,11.00
2019-04-20T11:58:26.088Z,12.10
2019-04-20T12:01:04.225Z,11.70
2019-04-20T12:03:33.858Z,11.50
2019-04-20T12:06:02.792Z,11.40
2019-04-20T12:08:29.306Z,11.30
2019-04-20T12:11:03.105Z,11.70
2019-04-20T12:13:29.050Z,11.80
2019-04-20T12:15:59.522Z,12.10
2019-04-20T12:18:31.818Z,13.10
2019-04-20T12:21:01.367Z,11.90
2019-04-20T12:23:30.746Z,11.70
2019-04-20T12:25:59.831Z,12.50
2019-04-20T12:28:29.477Z,12.40
2019-04-20T12:31:08.113Z,12.20
2019-04-20T12:33:30.717Z,12.00
2019-04-20T12:36:00.484Z,11.90
2019-04-20T12:38:30.718Z,13.00
2019-04-20T12:41:04.258Z,12.70
2019-04-20T12:43:31.884Z,12.20
2019-04-20T12:46:07.662Z,11.70
2019-04-20T12:48:37.744Z,12.70
2019-04-20T12:51:08.165Z,11.20
2019-04-20T12:53:36.462Z,11.80
2019-04-20T12:56:06.772Z,10.80
2019-04-20T12:58:47.414Z,12.00
2019-04-20T13:01:17.762Z,11.80
2019-04-20T13:03:45.805Z,10.30
2019-04-20T13:06:19.481Z,11.20
2019-04-20T13:08:53.747Z,11.10
2019-04-20T13:11:22.543Z,12.00
2019-04-20T13:13:56.602Z,11.40
2019-04-20T13:16:28.133Z,11.50
2019-04-20T13:18:59.506Z,12.10
2019-04-20T13:21:28.870Z,10.90
2019-04-20T13:23:58.726Z,12.00
2019-04-20T13:26:28.839Z,12.20
2019-04-20T13:29:04.752Z,12.00
2019-04-20T13:31:33.792Z,12.40
2019-04-20T13:34:03.580Z,12.30
2019-04-20T13:36:32.592Z,11.90
2019-04-20T13:39:01.755Z,12.10
2019-04-20T13:41:33.746Z,11.40
2019-04-20T13:44:08.414Z,12.80
2019-04-20T13:46:38.874Z,11.80
2019-04-20T13:49:09.314Z,12.50
2019-04-20T13:51:44.816Z,12.30
2019-04-20T13:54:18.021Z,11.60
2019-04-20T13:56:48.034Z,11.40
2019-04-20T13:59:25.842Z,12.40
2019-04-20T14:02:02.553Z,12.60
2019-04-20T14:04:32.741Z,11.80
2019-04-20T14:07:01.741Z,11.70
2019-04-20T14:09:35.413Z,12.50
2019-04-20T14:12:13.871Z,11.60
2019-04-20T14:14:35.047Z,12.20
2019-04-20T14:17:05.405Z,10.80
2019-04-20T14:19:41.132Z,12.60
2019-04-20T14:22:16.474Z,11.90
2019-04-20T14:24:46.917Z,12.30
2019-04-20T14:27:15.260Z,11.80
2019-04-20T14:29:43.540Z,12.40
2019-04-20T14:32:14.753Z,12.80
2019-04-20T14:34:44.802Z,12.10
2019-04-20T14:37:13.162Z,12.40
2019-04-20T14:39:42.523Z,12.60
2019-04-20T14:42:24.263Z,11.60
2019-04-20T14:44:41.699Z,12.10
2019-04-20T14:47:12.027Z,12.50
2019-04-20T14:49:40.897Z,12.40
2019-04-20T14:52:13.512Z,12.90
2019-04-20T14:54:41.960Z,11.80
2019-04-20T14:57:11.754Z,12.90
2019-04-20T14:59:43.458Z,13.70
2019-04-20T15:02:13.440Z,13.80
2019-04-20T15:04:43.229Z,13.80
2019-04-20T15:07:12.974Z,14.70
2019-04-20T15:09:42.795Z,13.40
2019-04-20T15:12:12.801Z,13.50
2019-04-20T15:14:42.769Z,14.10
2019-04-20T15:17:15.394Z,13.00
2019-04-20T15:19:45.601Z,14.10
2019-04-20T15:22:30.024Z,14.10
2019-04-20T15:24:59.997Z,14.00
2019-04-20T15:27:33.530Z,14.00
2019-04-20T15:30:02.698Z,13.70
2019-04-20T15:32:31.643Z,15.70
2019-04-20T15:35:00.704Z,15.00
2019-04-20T15:37:30.725Z,14.80
2019-04-20T15:39:59.581Z,15.60
2019-04-20T15:42:29.979Z,13.80
2019-04-20T15:45:01.544Z,14.20
2019-04-20T15:47:31.897Z,15.20
2019-04-20T15:50:00.474Z,15.90
2019-04-20T15:52:36.864Z,15.80
2019-04-20T15:55:01.923Z,16.10
2019-04-20T15:57:33.515Z,16.70
2019-04-20T16:00:02.747Z,15.30
2019-04-20T16:02:33.620Z,17.40
2019-04-20T16:05:04.070Z,16.30
2019-04-20T16:07:39.194Z,17.80
2019-04-20T16:10:07.419Z,16.30
2019-04-20T16:12:38.478Z,16.60
2019-04-20T16:15:09.802Z,16.70
2019-04-20T16:17:43.241Z,17.10
2019-04-20T16:20:13.927Z,17.40
2019-04-20T16:22:38.741Z,17.90
2019-04-20T16:25:09.612Z,17.90
2019-04-20T16:27:38.378Z,18.20
2019-04-20T16:30:07.602Z,18.80
2019-04-20T16:32:36.566Z,17.00
2019-04-20T16:35:06.654Z,18.50
2019-04-20T16:37:35.069Z,19.00
2019-04-20T16:40:06.095Z,17.40
2019-04-20T16:42:37.600Z,19.30
2019-04-20T16:45:07.437Z,20.00
2019-04-20T16:47:36.637Z,19.00
2019-04-20T16:50:06.877Z,18.70
2019-04-20T16:52:36.751Z,20.50
2019-04-20T16:55:06.438Z,18.70
2019-04-20T16:57:35.253Z,20.80
2019-04-20T17:00:05.577Z,20.80
2019-04-20T17:02:34.098Z,19.70
2019-04-20T17:05:11.455Z,22.30
2019-04-20T17:07:42.691Z,21.10
2019-04-20T17:10:12.012Z,21.40
2019-04-20T17:12:41.790Z,21.70
2019-04-20T17:15:11.647Z,23.20
2019-04-20T17:17:40.196Z,21.30
2019-04-20T17:20:09.280Z,21.90
2019-04-20T17:22:38.588Z,22.50
2019-04-20T17:25:08.201Z,23.00
2019-04-20T17:27:41.365Z,23.50
2019-04-20T17:30:27.106Z,25.50
2019-04-20T17:33:00.001Z,24.40
2019-04-20T17:35:41.517Z,25.00
2019-04-20T17:37:58.801Z,24.20
2019-04-20T17:40:46.128Z,24.00
2019-04-20T17:43:09.286Z,25.40
2019-04-20T17:45:41.565Z,24.50
2019-04-20T17:48:31.543Z,27.20
2019-04-20T17:51:11.179Z,25.70
2019-04-20T17:53:47.290Z,28.00
2019-04-20T17:56:15.723Z,26.80
2019-04-20T17:58:44.093Z,27.80
2019-04-20T18:01:31.111Z,27.70
2019-04-20T18:04:29.646Z,27.30
2019-04-20T18:06:50.381Z,27.80
2019-04-20T18:09:34.814Z,28.20
2019-04-20T18:11:47.335Z,30.00
2019-04-20T18:14:35.785Z,27.90
2019-04-20T18:17:02.249Z,28.20
2019-04-20T18:19:28.267Z,27.80
2019-04-20T18:21:58.274Z,27.80
2019-04-20T18:24:51.084Z,28.60
2019-04-20T18:27:16.171Z,29.80
2019-04-20T18:29:47.263Z,29.40
2019-04-20T18:32:07.439Z,31.90
2019-04-20T18:34:52.989Z,31.00
2019-04-20T18:37:21.271Z,30.00
2019-04-20T18:40:03.828Z,30.10
2019-04-20T18:42:38.401Z,32.30
2019-04-20T18:45:22.001Z,34.40
2019-04-20T18:47:56.265Z,33.50
2019-04-20T18:50:16.547Z,33.10
2019-04-20T18:52:37.951Z,32.00
2019-04-20T18:55:13.904Z,33.10
2019-04-20T18:57:44.424Z,34.50
2019-04-20T19:00:32.473Z,32.90
2019-04-20T19:03:09.635Z,35.10
2019-04-20T19:05:29.495Z,33.50
2019-04-20T19:08:04.274Z,33.40
2019-04-20T19:10:33.074Z,36.30
2019-04-20T19:13:05.876Z,36.40
2019-04-20T19:16:03.731Z,35.20
2019-04-20T19:18:47.831Z,37.20
2019-04-20T19:21:03.556Z,37.50
2019-04-20T19:23:57.978Z,37.30
2019-04-20T19:26:22.842Z,37.10
2019-04-20T19:29:12.015Z,39.10
2019-04-20T19:31:44.779Z,38.20
2019-04-20T19:34:18.757Z,39.80
2019-04-20T19:36:38.954Z,39.60
2019-04-20T19:39:19.471Z,39.60
2019-04-20T19:41:54.012Z,39.80
2019-04-20T19:44:25.018Z,40.50
2019-04-20T19:47:11.347Z,40.10
2019-04-20T19:49:32.441Z,40.20
2019-04-20T19:52:21.017Z,40.70
2019-04-20T19:54:42.667Z,42.10
2019-04-20T19:57:09.405Z,42.90
2019-04-20T19:59:35.610Z,42.70
2019-04-20T20:01:57.892Z,41.00
2019-04-20T20:04:27.319Z,43.20
2019-04-20T20:07:03.234Z,42.40
2019-04-20T20:09:25.913Z,41.90
2019-04-20T20:12:04.893Z,43.60
2019-04-20T20:14:37.493Z,42.80
2019-04-20T20:17:19.952Z,45.10
2019-04-20T20:20:03.916Z,43.30
2019-04-20T20:22:16.932Z,42.50
2019-04-20T20:24:36.784Z,44.30
2019-04-20T20:27:18.630Z,44.80
2019-04-20T20:29:52.147Z,43.80
2019-04-20T20:32:21.437Z,44.70
2019-04-20T20:34:43.419Z,45.00
2019-04-20T20:37:33.749Z,44.80
2019-04-20T20:40:07.652Z,46.40
2019-04-20T20:42:32.927Z,44.50
2019-04-20T20:45:09.112Z,45.40
2019-04-20T20:48:02.242Z,45.40
2019-04-20T20:50:33.769Z,45.30
2019-04-20T20:52:43.685Z,46.30
2019-04-20T20:55:06.723Z,46.30
2019-04-20T20:57:39.966Z,47.10
2019-04-20T21:00:03.557Z,46.30
2019-04-20T21:02:44.144Z,48.20
2019-04-20T21:05:09.207Z,46.70
2019-04-20T21:07:42.725Z,46.70
2019-04-20T21:10:15.363Z,47.40
2019-04-20T21:12:46.444Z,48.80
2019-04-20T21:15:17.193Z,47.50
2019-04-20T21:18:08.539Z,48.70
2019-04-20T21:20:33.107Z,48.70
2019-04-20T21:22:58.361Z,49.20
2019-04-20T21:25:24.694Z,48.90
2019-04-20T21:27:52.804Z,49.00
2019-04-20T21:30:31.061Z,48.60
2019-04-20T21:32:55.467Z,48.40
2019-04-20T21:35:23.775Z,46.50
2019-04-20T21:37:58.899Z,49.20
2019-04-20T21:40:36.160Z,48.20
2019-04-20T21:43:03.589Z,48.70
2019-04-20T21:45:33.882Z,49.90
2019-04-20T21:48:01.361Z,50.60
2019-04-20T21:50:50.884Z,50.30
2019-04-20T21:53:10.572Z,49.50
2019-04-20T21:55:41.885Z,50.20
2019-04-20T21:58:10.387Z,49.80
2019-04-20T22:01:07.016Z,50.20
2019-04-20T22:03:24.729Z,50.50
2019-04-20T22:06:04.970Z,50.40
2019-04-20T22:08:34.629Z,49.50
2019-04-20T22:11:03.967Z,50.20
2019-04-20T22:13:38.077Z,51.50
2019-04-20T22:16:07.312Z,50.80
2019-04-20T22:18:48.451Z,49.10
2019-04-20T22:21:18.766Z,48.40
2019-04-20T22:23:54.805Z,50.70
2019-04-20T22:26:20.721Z,51.10
2019-04-20T22:28:40.378Z,51.00
2019-04-20T22:31:09.609Z,49.70
2019-04-20T22:33:45.406Z,51.80
2019-04-20T22:36:31.564Z,50.60
2019-04-20T22:39:15.709Z,50.30
2019-04-20T22:41:58.664Z,50.40
2019-04-20T22:44:24.315Z,50.60
2019-04-20T22:46:54.288Z,50.80
2019-04-20T22:49:43.101Z,50.40
2019-04-20T22:52:04.099Z,50.30
2019-04-20T22:54:42.324Z,51.20
2019-04-20T22:57:08.680Z,51.80
2019-04-20T22:59:39.900Z,51.70
2019-04-20T23:02:00.329Z,51.90
2019-04-20T23:04:26.754Z,51.00
2019-04-20T23:06:55.840Z,51.60
2019-04-20T23:09:44.443Z,52.00
2019-04-20T23:12:15.794Z,52.90
2019-04-20T23:14:46.572Z,52.40
2019-04-20T23:17:18.423Z,50.50
2019-04-20T23:19:50.958Z,52.20
2019-04-20T23:22:17.447Z,53.30
2019-04-20T23:24:47.113Z,54.40
2019-04-20T23:27:21.975Z,54.30
2019-04-20T23:29:46.864Z,53.90
2019-04-20T23:32:17.399Z,54.10
2019-04-20T23:34:49.086Z,54.70
2019-04-20T23:37:20.084Z,52.00
2019-04-20T23:39:48.804Z,53.80
2019-04-20T23:42:19.823Z,54.10
2019-04-20T23:44:54.396Z,55.10
2019-04-20T23:47:23.553Z,53.40
2019-04-20T23:50:15.184Z,52.50
2019-04-20T23:52:53.876Z,52.70
2019-04-20T23:55:05.935Z,55.70
2019-04-20T23:57:33.704Z,56.10
